Catàleg de serveis del Meteocat
Campanya meteocatpedra

Dades de l'estació automàtica Benissanet

?
?
Resum diari 23:00 TU
Dades diàries de l'estació meteorològica
Temperatura mitjana 26.9 °C
Temperatura màxima 34.8 °C 15:23 TU
Temperatura mínima 17.2 °C 4:37 TU
Humitat relativa mitjana 45%
Precipitació acumulada 0.0 mm
Ratxa màxima del vent (10 m) 50.4 km/h - 302º 12:23 TU
Irradiació solar global 30.4 MJ/m2

El tram horari està expressat en Temps Universal (TU). Cal sumar una hora en horari d'hivern i dues en horari d'estiu per passar a l'hora oficial.

Benissanet

Metadades estació meteorol´gica
Municipi Benissanet
Comarca Ribera d'Ebre
Altitud 32 m
Data alta 14.07.1993
Estat actual Operativa
Dades de període
Període
TU
TM
°C
TX
°C
TN
°C
HRM
%
PPT
mm
VVM (10 m)
km/h
DVM (10 m)
graus
VVX (10 m)
km/h
RS
W/m2
00:00 - 00:30 23.8 24.1 23.0 47 0.0 7.6 280 19.8 0
00:30 - 01:00 22.7 23.5 21.9 50 0.0 8.6 297 23.0 0
01:00 - 01:30 22.6 23.1 22.0 49 0.0 10.8 307 23.4 0
01:30 - 02:00 21.6 22.1 21.3 51 0.0 7.9 298 15.1 0
02:00 - 02:30 21.4 22.2 20.7 50 0.0 7.9 282 17.6 0
02:30 - 03:00 20.2 20.9 19.6 55 0.0 4.0 354 8.3 0
03:00 - 03:30 19.9 20.6 19.5 56 0.0 3.6 303 13.0 0
03:30 - 04:00 19.9 20.7 19.2 55 0.0 2.2 295 6.8 0
04:00 - 04:30 17.8 19.0 17.2 68 0.0 2.9 316 5.4 0
04:30 - 05:00 17.8 18.4 17.2 67 0.0 3.2 319 11.5 6
05:00 - 05:30 19.5 20.5 18.4 59 0.0 6.5 322 13.7 47
05:30 - 06:00 20.9 21.9 20.4 55 0.0 6.8 289 13.7 103
06:00 - 06:30 22.5 23.4 21.9 50 0.0 9.7 305 28.1 204
06:30 - 07:00 23.5 23.9 23.3 48 0.0 13.3 299 32.0 307
07:00 - 07:30 23.7 24.3 23.2 48 0.0 21.2 289 39.2 394
07:30 - 08:00 24.5 25.0 24.1 47 0.0 20.5 296 36.4 487
08:00 - 08:30 25.2 25.7 24.9 46 0.0 23.8 293 37.8 581
08:30 - 09:00 26.2 26.8 25.7 44 0.0 20.2 309 32.4 660
09:00 - 09:30 27.4 27.9 26.4 41 0.0 17.6 303 31.0 737
09:30 - 10:00 28.1 28.6 27.5 40 0.0 18.7 292 29.9 810
10:00 - 10:30 28.9 29.4 28.4 39 0.0 18.0 307 31.7 870
10:30 - 11:00 29.7 30.0 29.3 38 0.0 17.6 303 28.1 918
11:00 - 11:30 30.6 31.4 30.0 36 0.0 16.2 293 30.2 954
11:30 - 12:00 31.2 31.7 30.8 35 0.0 15.8 272 25.9 976
12:00 - 12:30 32.2 33.0 31.5 33 0.0 16.6 278 50.4 987
12:30 - 13:00 32.6 33.1 32.2 32 0.0 19.1 279 33.1 983
13:00 - 13:30 33.1 33.3 32.7 30 0.0 18.7 267 34.2 964
13:30 - 14:00 33.6 33.9 33.2 30 0.0 18.0 274 35.3 928
14:00 - 14:30 33.9 34.2 33.5 29 0.0 17.6 275 34.6 876
14:30 - 15:00 34.1 34.6 33.5 29 0.0 15.8 285 28.1 810
15:00 - 15:30 34.1 34.8 33.8 29 0.0 15.8 268 36.7 737
15:30 - 16:00 34.2 34.8 33.8 28 0.0 16.6 273 31.7 656
16:00 - 16:30 34.1 34.5 33.9 27 0.0 19.4 276 32.8 566
16:30 - 17:00 34.1 34.4 33.9 23 0.0 18.0 282 32.0 469
17:00 - 17:30 34.1 34.3 33.8 20 0.0 15.8 282 28.8 375
17:30 - 18:00 33.6 33.9 33.2 17 0.0 15.5 271 25.9 279
18:00 - 18:30 32.7 33.2 32.3 17 0.0 14.0 263 26.3 177
18:30 - 19:00 31.7 32.3 30.9 18 0.0 12.6 266 21.6 83
19:00 - 19:30 30.4 30.9 29.9 20 0.0 8.6 230 15.8 11
19:30 - 20:00 27.6 29.9 26.1 50 0.0 17.3 181 31.7 0
20:00 - 20:30 25.7 26.1 25.3 65 0.0 14.0 173 26.6 0
20:30 - 21:00 25.2 25.3 25.0 66 0.0 13.3 172 23.4 0
21:00 - 21:30 24.7 24.9 24.5 68 0.0 11.2 173 19.4 0
21:30 - 22:00 24.3 24.5 24.1 71 0.0 10.1 178 18.7 0
22:00 - 22:30 24.0 24.1 23.9 74 0.0 8.3 176 15.8 0
22:30 - 23:00 23.7 23.9 22.9 76 0.0 6.8 173 13.0 0
23:00 - 23:30 21.7 22.7 21.2 79 0.0 4.3 107 6.8 0

Les dades en taronja només han passat un control de qualitat automàtic. Resta pendent la seva validació definitiva.